Airfield :
LOGIN :

Register | Disclaimer

   EN    FR    IT 

 










Legend :    VFR   Marginal VFR   IFR   Intensive IFR   Very Intensive IFR
Visi :
Ceiling :
>= 8 km
>= 3000ft
5 to 8 km
1000 to 3000 ft
1500m to 5 km
500 to 1000 ft
800 to 1500m
200 to 500 ft
< 800m
< 200 ft
Symbols :   Thunderstorms  Fog  Heavy snow  Heavy precipitations  Wind > 20 kt
SIGMETs :     Misc.  Thunderstorms  Icing  Turbulence  Mountain Waves  Volcanic Ashes






- Airport Elevation : 459 ft
- IATA code : CER


LFRC - Cherbourg / Maupertus

CURRENT METAR :
  • 250100Z AUTO 32010G22KT 280V350 9999 FEW014 SCT025 BKN040 11/08 Q0994

EXPIRED METARs :
  • 250030Z AUTO 32012KT 280V350 8000 -RA BKN020/// BKN032/// BKN045/// ///TCU 11/09 Q0993
  • 250000Z AUTO 26012KT 9999 BKN024/// BKN035/// BKN047/// ///CB 10/09 Q0992
  • 242330Z AUTO 26012KT 9999 -DZ FEW023/// SCT049/// BKN074/// ///TCU 10/08 Q0993
  • 242300Z AUTO 25012KT 9999 FEW024/// BKN029/// BKN041/// ///CB 10/09 Q0992
  • 242230Z AUTO 25014KT 9999 BKN026/// BKN042/// BKN064/// ///CB 10/09 Q0992

Expired Forecast.



MET'MAP, your aeronautical weather chart ! - Copyright ORBIFLY December 2007 - Disclaimer

ORBIFLY MET'MAP TEAM :

Programming & Development : Alexandra Zaïnal
Concept & original design : Baudouin d'Aumeries
Assistance for programming : Marc-Olivier Méhu
Technical & hardware support : Manuel Goepfert

Contact : metmap@orbifly.com




SOURCES & CREDITS :

   NOAA